sensor_id;sensor_type;location;lat;lon;timestamp;pressure;altitude;pressure_sealevel;temperature;humidity
59240;BME280;45010;53.640;10.578;2023-01-26T00:01:21;101745.78;;;25.21;30.93
59240;BME280;45010;53.640;10.578;2023-01-26T00:04:22;101745.16;;;25.19;30.81
59240;BME280;45010;53.640;10.578;2023-01-26T00:07:22;101735.94;;;25.15;30.94
59240;BME280;45010;53.640;10.578;2023-01-26T00:10:23;101735.94;;;25.15;31.14
59240;BME280;45010;53.640;10.578;2023-01-26T00:13:23;101719.53;;;25.11;30.88
59240;BME280;45010;53.640;10.578;2023-01-26T00:16:24;101707.25;;;25.03;30.99
59240;BME280;45010;53.640;10.578;2023-01-26T00:19:24;101719.34;;;25.06;30.97
59240;BME280;45010;53.640;10.578;2023-01-26T00:22:26;101719.56;;;25.04;30.92
59240;BME280;45010;53.640;10.578;2023-01-26T00:25:27;101716.28;;;25.02;31.14
59240;BME280;45010;53.640;10.578;2023-01-26T00:28:28;101710.13;;;24.95;31.03
59240;BME280;45010;53.640;10.578;2023-01-26T00:31:28;101716.09;;;24.97;31.03
59240;BME280;45010;53.640;10.578;2023-01-26T00:34:28;101718.75;;;24.97;31.03
59240;BME280;45010;53.640;10.578;2023-01-26T00:37:29;101706.84;;;24.93;31.06
59240;BME280;45010;53.640;10.578;2023-01-26T00:40:29;101691.28;;;24.83;31.26
59240;BME280;45010;53.640;10.578;2023-01-26T00:43:30;101693.75;;;24.84;31.20
59240;BME280;45010;53.640;10.578;2023-01-26T00:46:30;101627.09;;;24.44;31.02
59240;BME280;45010;53.640;10.578;2023-01-26T00:49:31;101697.00;;;24.87;31.17
59240;BME280;45010;53.640;10.578;2023-01-26T00:52:31;101687.78;;;24.82;31.09
59240;BME280;45010;53.640;10.578;2023-01-26T00:55:32;101688.00;;;24.81;31.21
59240;BME280;45010;53.640;10.578;2023-01-26T00:58:32;101679.34;;;24.79;31.17
59240;BME280;45010;53.640;10.578;2023-01-26T01:01:32;101681.41;;;24.77;31.22
59240;BME280;45010;53.640;10.578;2023-01-26T01:04:33;101681.00;;;24.73;31.29
59240;BME280;45010;53.640;10.578;2023-01-26T01:07:33;101676.06;;;24.70;31.48
59240;BME280;45010;53.640;10.578;2023-01-26T01:10:34;101681.84;;;24.67;31.25
59240;BME280;45010;53.640;10.578;2023-01-26T01:13:34;101679.38;;;24.58;31.12
59240;BME280;45010;53.640;10.578;2023-01-26T01:16:34;101677.94;;;24.63;31.50
59240;BME280;45010;53.640;10.578;2023-01-26T01:19:35;101675.72;;;24.60;31.28
59240;BME280;45010;53.640;10.578;2023-01-26T01:22:36;101662.56;;;24.51;31.43
59240;BME280;45010;53.640;10.578;2023-01-26T01:25:36;101661.13;;;24.55;31.54
59240;BME280;45010;53.640;10.578;2023-01-26T01:28:37;101660.94;;;24.50;31.43
59240;BME280;45010;53.640;10.578;2023-01-26T01:31:38;101659.31;;;24.49;31.30
59240;BME280;45010;53.640;10.578;2023-01-26T01:34:40;101662.38;;;24.46;31.50
59240;BME280;45010;53.640;10.578;2023-01-26T01:37:40;101663.59;;;24.43;31.44
59240;BME280;45010;53.640;10.578;2023-01-26T01:40:43;101671.00;;;24.41;31.58
59240;BME280;45010;53.640;10.578;2023-01-26T01:43:44;101669.56;;;24.39;31.71
59240;BME280;45010;53.640;10.578;2023-01-26T01:46:51;101665.47;;;24.36;31.56
59240;BME280;45010;53.640;10.578;2023-01-26T01:49:53;101664.84;;;24.34;31.64
59240;BME280;45010;53.640;10.578;2023-01-26T01:52:55;101639.25;;;24.13;31.70
59240;BME280;45010;53.640;10.578;2023-01-26T01:56:01;101663.81;;;24.28;31.70
59240;BME280;45010;53.640;10.578;2023-01-26T01:59:05;101656.25;;;24.25;31.74
59240;BME280;45010;53.640;10.578;2023-01-26T02:02:07;101657.28;;;24.24;31.90
59240;BME280;45010;53.640;10.578;2023-01-26T02:05:30;101647.03;;;24.14;31.79
59240;BME280;45010;53.640;10.578;2023-01-26T02:11:44;101626.06;;;24.04;31.95
59240;BME280;45010;53.640;10.578;2023-01-26T02:14:45;101647.25;;;24.13;31.78
59240;BME280;45010;53.640;10.578;2023-01-26T02:17:45;101635.13;;;24.10;31.79
59240;BME280;45010;53.640;10.578;2023-01-26T02:20:49;101619.31;;;24.02;32.03
59240;BME280;45010;53.640;10.578;2023-01-26T02:24:19;101636.53;;;24.06;31.74
59240;BME280;45010;53.640;10.578;2023-01-26T02:27:21;101635.09;;;24.03;31.80
59240;BME280;45010;53.640;10.578;2023-01-26T02:30:22;101605.59;;;23.85;31.82
59240;BME280;45010;53.640;10.578;2023-01-26T02:33:25;101628.56;;;23.99;31.94
59240;BME280;45010;53.640;10.578;2023-01-26T02:36:28;101627.91;;;23.97;31.85
59240;BME280;45010;53.640;10.578;2023-01-26T02:39:47;101628.94;;;23.96;31.93
59240;BME280;45010;53.640;10.578;2023-01-26T02:42:49;101620.34;;;23.94;32.10
59240;BME280;45010;53.640;10.578;2023-01-26T02:45:53;101617.06;;;23.92;31.81
59240;BME280;45010;53.640;10.578;2023-01-26T02:48:54;101604.16;;;23.82;32.13
59240;BME280;45010;53.640;10.578;2023-01-26T02:52:14;101588.56;;;23.72;31.91
59240;BME280;45010;53.640;10.578;2023-01-26T02:55:14;101617.88;;;23.86;31.97
59240;BME280;45010;53.640;10.578;2023-01-26T02:58:24;101611.94;;;23.84;32.04
59240;BME280;45010;53.640;10.578;2023-01-26T03:01:24;101615.00;;;23.81;32.11
59240;BME280;45010;53.640;10.578;2023-01-26T03:04:25;101612.75;;;23.77;32.39
59240;BME280;45010;53.640;10.578;2023-01-26T03:07:25;101616.03;;;23.73;31.85
59240;BME280;45010;53.640;10.578;2023-01-26T03:10:25;101607.63;;;23.76;32.11
59240;BME280;45010;53.640;10.578;2023-01-26T03:13:26;101603.53;;;23.73;32.43
59240;BME280;45010;53.640;10.578;2023-01-26T03:16:26;101600.06;;;23.73;32.01
59240;BME280;45010;53.640;10.578;2023-01-26T03:19:26;101598.63;;;23.70;32.43
59240;BME280;45010;53.640;10.578;2023-01-26T03:22:45;101596.97;;;23.69;32.29
59240;BME280;45010;53.640;10.578;2023-01-26T03:26:04;101535.28;;;23.32;32.03
59240;BME280;45010;53.640;10.578;2023-01-26T03:29:23;101558.25;;;23.46;32.27
59240;BME280;45010;53.640;10.578;2023-01-26T03:32:25;101585.47;;;23.62;32.45
59240;BME280;45010;53.640;10.578;2023-01-26T03:35:26;101598.78;;;23.62;32.24
59240;BME280;45010;53.640;10.578;2023-01-26T03:38:26;101598.19;;;23.60;32.33
59240;BME280;45010;53.640;10.578;2023-01-26T03:41:27;101602.91;;;23.58;32.47
59240;BME280;45010;53.640;10.578;2023-01-26T03:44:46;101590.41;;;23.51;32.64
59240;BME280;45010;53.640;10.578;2023-01-26T03:48:10;101586.72;;;23.53;32.58
59240;BME280;45010;53.640;10.578;2023-01-26T03:51:29;101593.69;;;23.54;32.64
59240;BME280;45010;53.640;10.578;2023-01-26T03:54:48;101586.72;;;23.53;32.79
59240;BME280;45010;53.640;10.578;2023-01-26T03:58:06;101572.59;;;23.45;32.43
59240;BME280;45010;53.640;10.578;2023-01-26T04:01:08;101580.75;;;23.50;32.38
59240;BME280;45010;53.640;10.578;2023-01-26T04:04:10;101583.84;;;23.47;32.72
59240;BME280;45010;53.640;10.578;2023-01-26T04:07:29;101578.50;;;23.47;32.84
59240;BME280;45010;53.640;10.578;2023-01-26T04:10:51;101572.38;;;23.40;32.58
59240;BME280;45010;53.640;10.578;2023-01-26T04:13:51;101580.75;;;23.44;32.81
59240;BME280;45010;53.640;10.578;2023-01-26T04:17:10;101572.34;;;23.33;32.43
59240;BME280;45010;53.640;10.578;2023-01-26T04:20:29;101584.66;;;23.41;32.54
59240;BME280;45010;53.640;10.578;2023-01-26T04:23:48;101587.31;;;23.41;32.95
59240;BME280;45010;53.640;10.578;2023-01-26T04:26:49;101586.69;;;23.39;32.69
59240;BME280;45010;53.640;10.578;2023-01-26T04:29:49;101562.06;;;23.23;32.96
59240;BME280;45010;53.640;10.578;2023-01-26T04:32:49;101573.59;;;23.37;32.58
59240;BME280;45010;53.640;10.578;2023-01-26T04:35:50;101575.41;;;23.37;32.91
59240;BME280;45010;53.640;10.578;2023-01-26T04:38:50;101582.59;;;23.36;32.88
59240;BME280;45010;53.640;10.578;2023-01-26T04:41:50;101581.75;;;23.36;32.85
59240;BME280;45010;53.640;10.578;2023-01-26T04:44:52;101551.59;;;23.15;33.09
59240;BME280;45010;53.640;10.578;2023-01-26T04:47:52;101568.66;;;23.34;33.01
59240;BME280;45010;53.640;10.578;2023-01-26T04:50:54;101537.88;;;23.18;33.00
59240;BME280;45010;53.640;10.578;2023-01-26T04:53:55;101559.03;;;23.33;32.74
59240;BME280;45010;53.640;10.578;2023-01-26T04:56:55;101559.22;;;23.32;33.00
59240;BME280;45010;53.640;10.578;2023-01-26T04:59:55;101552.25;;;23.31;33.01
59240;BME280;45010;53.640;10.578;2023-01-26T05:02:56;101568.22;;;23.31;33.07
59240;BME280;45010;53.640;10.578;2023-01-26T05:05:56;101563.91;;;23.30;33.24
59240;BME280;45010;53.640;10.578;2023-01-26T05:08:57;101553.03;;;23.24;33.01
59240;BME280;45010;53.640;10.578;2023-01-26T05:11:57;101559.41;;;23.30;33.10
59240;BME280;45010;53.640;10.578;2023-01-26T05:15:17;101554.94;;;23.31;33.15
59240;BME280;45010;53.640;10.578;2023-01-26T05:18:17;101564.94;;;23.29;32.89
59240;BME280;45010;53.640;10.578;2023-01-26T05:21:18;101552.66;;;23.28;32.99
59240;BME280;45010;53.640;10.578;2023-01-26T05:24:18;101538.50;;;23.20;32.98
59240;BME280;45010;53.640;10.578;2023-01-26T05:27:19;101551.03;;;23.27;33.33
59240;BME280;45010;53.640;10.578;2023-01-26T05:30:22;101564.53;;;23.25;32.95
59240;BME280;45010;53.640;10.578;2023-01-26T05:33:22;101563.50;;;23.26;33.00
59240;BME280;45010;53.640;10.578;2023-01-26T05:36:22;101562.88;;;23.24;33.35
59240;BME280;45010;53.640;10.578;2023-01-26T05:39:23;101560.22;;;23.24;33.03
59240;BME280;45010;53.640;10.578;2023-01-26T05:42:24;101549.56;;;23.17;33.06
59240;BME280;45010;53.640;10.578;2023-01-26T05:45:24;101558.56;;;23.23;33.43
59240;BME280;45010;53.640;10.578;2023-01-26T05:48:25;101560.41;;;23.22;32.98
59240;BME280;45010;53.640;10.578;2023-01-26T05:51:25;101564.91;;;23.22;33.39
59240;BME280;45010;53.640;10.578;2023-01-26T05:54:25;101560.41;;;23.22;33.40
59240;BME280;45010;53.640;10.578;2023-01-26T05:57:26;101564.09;;;23.21;33.30
59240;BME280;45010;53.640;10.578;2023-01-26T06:00:26;101563.28;;;23.21;33.50
59240;BME280;45010;53.640;10.578;2023-01-26T06:03:27;101562.44;;;23.20;33.77
59240;BME280;45010;53.640;10.578;2023-01-26T06:06:27;101560.41;;;23.22;33.66
59240;BME280;45010;53.640;10.578;2023-01-26T06:09:28;101560.00;;;23.25;34.02
59240;BME280;45010;53.640;10.578;2023-01-26T06:12:28;101562.28;;;23.29;33.85
59240;BME280;45010;53.640;10.578;2023-01-26T06:15:34;101575.19;;;23.32;33.92
59240;BME280;45010;53.640;10.578;2023-01-26T06:18:34;101565.78;;;23.36;33.86
59240;BME280;45010;53.640;10.578;2023-01-26T06:21:35;101563.75;;;23.38;33.85
59240;BME280;45010;53.640;10.578;2023-01-26T06:24:35;101540.81;;;23.37;33.88
59240;BME280;45010;53.640;10.578;2023-01-26T06:27:36;101546.78;;;23.39;33.97
59240;BME280;45010;53.640;10.578;2023-01-26T06:30:40;101567.44;;;23.50;34.03
59240;BME280;45010;53.640;10.578;2023-01-26T06:33:41;101566.22;;;23.53;34.04
59240;BME280;45010;53.640;10.578;2023-01-26T06:36:42;101568.50;;;23.56;33.96
59240;BME280;45010;53.640;10.578;2023-01-26T06:39:42;101558.25;;;23.60;33.91
59240;BME280;45010;53.640;10.578;2023-01-26T06:42:47;101564.81;;;23.64;33.94
59240;BME280;45010;53.640;10.578;2023-01-26T06:45:47;101569.91;;;23.65;33.98
59240;BME280;45010;53.640;10.578;2023-01-26T06:48:48;101568.69;;;23.68;33.54
59240;BME280;45010;53.640;10.578;2023-01-26T06:51:54;101556.19;;;23.62;33.65
59240;BME280;45010;53.640;10.578;2023-01-26T06:54:57;101571.56;;;23.73;33.57
59240;BME280;45010;53.640;10.578;2023-01-26T06:57:58;101571.16;;;23.76;33.53
59240;BME280;45010;53.640;10.578;2023-01-26T07:01:00;101571.78;;;23.78;33.24
59240;BME280;45010;53.640;10.578;2023-01-26T07:04:00;101575.03;;;23.81;33.18
59240;BME280;45010;53.640;10.578;2023-01-26T07:07:01;101581.00;;;23.83;33.26
59240;BME280;45010;53.640;10.578;2023-01-26T07:10:02;101580.81;;;23.84;33.09
59240;BME280;45010;53.640;10.578;2023-01-26T07:13:04;101574.03;;;23.82;33.50
59240;BME280;45010;53.640;10.578;2023-01-26T07:16:13;101569.53;;;23.82;33.77
59240;BME280;45010;53.640;10.578;2023-01-26T07:19:13;101576.50;;;23.90;33.79
59240;BME280;45010;53.640;10.578;2023-01-26T07:22:13;101578.75;;;23.93;33.91
59240;BME280;45010;53.640;10.578;2023-01-26T07:25:14;101579.38;;;23.95;33.71
59240;BME280;45010;53.640;10.578;2023-01-26T07:28:15;101586.31;;;23.96;33.82
59240;BME280;45010;53.640;10.578;2023-01-26T07:31:15;101582.63;;;23.97;33.50
59240;BME280;45010;53.640;10.578;2023-01-26T07:34:15;101575.66;;;23.96;33.45
59240;BME280;45010;53.640;10.578;2023-01-26T07:37:16;101585.94;;;23.99;33.56
59240;BME280;45010;53.640;10.578;2023-01-26T07:40:16;101588.38;;;24.01;33.59
59240;BME280;45010;53.640;10.578;2023-01-26T07:43:17;101576.50;;;23.97;33.22
59240;BME280;45010;53.640;10.578;2023-01-26T07:46:18;101586.09;;;24.04;33.40
59240;BME280;45010;53.640;10.578;2023-01-26T07:49:18;101592.25;;;24.05;33.28
59240;BME280;45010;53.640;10.578;2023-01-26T07:52:18;101587.56;;;24.07;33.26
59240;BME280;45010;53.640;10.578;2023-01-26T07:55:19;101571.97;;;23.97;33.31
59240;BME280;45010;53.640;10.578;2023-01-26T07:58:20;101576.47;;;24.03;33.07
59240;BME280;45010;53.640;10.578;2023-01-26T08:01:21;101583.66;;;24.10;33.53
59240;BME280;45010;53.640;10.578;2023-01-26T08:04:22;101590.03;;;24.09;33.54
59240;BME280;45010;53.640;10.578;2023-01-26T08:07:22;101598.63;;;24.11;33.44
59240;BME280;45010;53.640;10.578;2023-01-26T08:10:23;101608.28;;;24.12;33.50
59240;BME280;45010;53.640;10.578;2023-01-26T08:13:23;101573.59;;;23.98;33.34
59240;BME280;45010;53.640;10.578;2023-01-26T08:16:23;101582.66;;;24.11;33.54
59240;BME280;45010;53.640;10.578;2023-01-26T08:19:24;101582.44;;;24.12;33.29
59240;BME280;45010;53.640;10.578;2023-01-26T08:22:24;101584.31;;;24.12;33.40
59240;BME280;45010;53.640;10.578;2023-01-26T08:25:25;101591.28;;;24.13;33.56
59240;BME280;45010;53.640;10.578;2023-01-26T08:28:25;101594.53;;;24.15;33.63
59240;BME280;45010;53.640;10.578;2023-01-26T08:31:25;101598.22;;;24.14;33.49
59240;BME280;45010;53.640;10.578;2023-01-26T08:34:27;101605.19;;;24.15;33.60
59240;BME280;45010;53.640;10.578;2023-01-26T08:37:27;101605.19;;;24.15;33.35
59240;BME280;45010;53.640;10.578;2023-01-26T08:40:28;101594.97;;;24.12;33.43
59240;BME280;45010;53.640;10.578;2023-01-26T08:43:28;101595.56;;;24.14;33.24
59240;BME280;45010;53.640;10.578;2023-01-26T08:46:29;101593.72;;;24.08;33.10
59240;BME280;45010;53.640;10.578;2023-01-26T08:49:29;101610.97;;;24.12;33.10
59240;BME280;45010;53.640;10.578;2023-01-26T08:52:30;101611.97;;;24.11;33.16
59240;BME280;45010;53.640;10.578;2023-01-26T08:55:30;101596.56;;;24.06;33.08
59240;BME280;45010;53.640;10.578;2023-01-26T08:58:31;101591.66;;;24.03;32.48
59240;BME280;45010;53.640;10.578;2023-01-26T09:01:32;101595.38;;;24.09;33.49
59240;BME280;45010;53.640;10.578;2023-01-26T09:04:33;101586.34;;;24.03;33.70
59240;BME280;45010;53.640;10.578;2023-01-26T09:07:33;101583.88;;;24.01;33.53
59240;BME280;45010;53.640;10.578;2023-01-26T09:10:35;101595.75;;;24.05;33.61
59240;BME280;45010;53.640;10.578;2023-01-26T09:13:35;101596.59;;;24.13;33.64
59240;BME280;45010;53.640;10.578;2023-01-26T09:16:37;101597.19;;;24.15;33.80
59240;BME280;45010;53.640;10.578;2023-01-26T09:19:38;101600.47;;;24.17;33.52
59240;BME280;45010;53.640;10.578;2023-01-26T09:22:38;101601.09;;;24.19;33.27
59240;BME280;45010;53.640;10.578;2023-01-26T09:25:39;101589.22;;;24.15;33.53
59240;BME280;45010;53.640;10.578;2023-01-26T09:28:39;101607.63;;;24.23;33.65
59240;BME280;45010;53.640;10.578;2023-01-26T09:31:39;101593.31;;;24.24;33.25
59240;BME280;45010;53.640;10.578;2023-01-26T09:34:40;101601.91;;;24.26;33.53
59240;BME280;45010;53.640;10.578;2023-01-26T09:37:42;101582.00;;;24.22;33.06
59240;BME280;45010;53.640;10.578;2023-01-26T09:44:08;101592.69;;;24.22;33.29
59240;BME280;45010;53.640;10.578;2023-01-26T09:50:30;101590.63;;;24.31;33.26
59240;BME280;45010;53.640;10.578;2023-01-26T09:53:52;101582.22;;;24.27;33.15
59240;BME280;45010;53.640;10.578;2023-01-26T09:56:54;101580.59;;;24.26;33.11
59240;BME280;45010;53.640;10.578;2023-01-26T10:00:09;101576.09;;;24.20;33.02
59240;BME280;45010;53.640;10.578;2023-01-26T10:07:10;101586.91;;;24.39;33.11
59240;BME280;45010;53.640;10.578;2023-01-26T10:10:19;101570.72;;;24.34;33.01
59240;BME280;45010;53.640;10.578;2023-01-26T10:13:23;101577.88;;;24.40;33.01
59240;BME280;45010;53.640;10.578;2023-01-26T10:16:24;101581.19;;;24.42;32.89
59240;BME280;45010;53.640;10.578;2023-01-26T10:19:30;101578.50;;;24.42;33.03
59240;BME280;45010;53.640;10.578;2023-01-26T10:22:47;101581.78;;;24.44;33.06
59240;BME280;45010;53.640;10.578;2023-01-26T10:25:49;101553.09;;;24.33;32.95
59240;BME280;45010;53.640;10.578;2023-01-26T10:28:51;101569.03;;;24.46;33.08
59240;BME280;45010;53.640;10.578;2023-01-26T10:31:52;101576.00;;;24.47;32.72
59240;BME280;45010;53.640;10.578;2023-01-26T10:34:52;101572.34;;;24.48;33.04
59240;BME280;45010;53.640;10.578;2023-01-26T10:37:52;101569.69;;;24.48;32.92
59240;BME280;45010;53.640;10.578;2023-01-26T10:40:53;101555.13;;;24.44;32.93
59240;BME280;45010;53.640;10.578;2023-01-26T10:44:17;101562.28;;;24.50;33.07
59240;BME280;45010;53.640;10.578;2023-01-26T10:47:20;101557.53;;;24.52;33.13
59240;BME280;45010;53.640;10.578;2023-01-26T10:50:23;101563.50;;;24.54;33.05
59240;BME280;45010;53.640;10.578;2023-01-26T10:53:28;101538.28;;;24.43;33.01
59240;BME280;45010;53.640;10.578;2023-01-26T10:56:28;101553.22;;;24.58;33.02
59240;BME280;45010;53.640;10.578;2023-01-26T10:59:36;101537.03;;;24.53;32.93
59240;BME280;45010;53.640;10.578;2023-01-26T11:02:49;101544.00;;;24.61;32.75
59240;BME280;45010;53.640;10.578;2023-01-26T11:06:05;101547.84;;;24.65;32.73
59240;BME280;45010;53.640;10.578;2023-01-26T11:09:27;101546.22;;;24.64;32.71
59240;BME280;45010;53.640;10.578;2023-01-26T11:12:27;101534.16;;;24.54;33.03
59240;BME280;45010;53.640;10.578;2023-01-26T11:15:36;101545.63;;;24.62;32.72
59240;BME280;45010;53.640;10.578;2023-01-26T11:22:09;101538.03;;;24.58;32.39
59240;BME280;45010;53.640;10.578;2023-01-26T11:25:33;101549.69;;;24.71;32.44
59240;BME280;45010;53.640;10.578;2023-01-26T11:31:56;101552.13;;;24.72;32.55
59240;BME280;45010;53.640;10.578;2023-01-26T11:35:16;101547.63;;;24.73;32.53
59240;BME280;45010;53.640;10.578;2023-01-26T11:38:39;101546.59;;;24.74;32.75
59240;BME280;45010;53.640;10.578;2023-01-26T12:01:42;101489.41;;;24.63;32.80
59240;BME280;45010;53.640;10.578;2023-01-26T12:04:46;101511.06;;;24.80;32.59
59240;BME280;45010;53.640;10.578;2023-01-26T12:11:08;101510.66;;;24.83;32.62
59240;BME280;45010;53.640;10.578;2023-01-26T12:14:43;101512.31;;;24.84;32.64
59240;BME280;45010;53.640;10.578;2023-01-26T12:18:03;101483.78;;;24.78;32.55
59240;BME280;45010;53.640;10.578;2023-01-26T12:21:09;101493.44;;;24.79;32.61
59240;BME280;45010;53.640;10.578;2023-01-26T12:24:33;101495.06;;;24.80;32.75
59240;BME280;45010;53.640;10.578;2023-01-26T12:27:39;101478.22;;;24.87;32.60
59240;BME280;45010;53.640;10.578;2023-01-26T12:31:17;101481.50;;;24.89;32.54
59240;BME280;45010;53.640;10.578;2023-01-26T12:34:25;101462.22;;;24.87;32.58
59240;BME280;45010;53.640;10.578;2023-01-26T12:37:50;101464.63;;;24.95;32.37
59240;BME280;45010;53.640;10.578;2023-01-26T12:41:34;101458.81;;;25.05;32.06
59240;BME280;45010;53.640;10.578;2023-01-26T12:44:41;101463.44;;;24.91;32.36
59240;BME280;45010;53.640;10.578;2023-01-26T12:47:54;101463.84;;;24.88;32.27
59240;BME280;45010;53.640;10.578;2023-01-26T12:51:00;101464.06;;;24.86;32.21
59240;BME280;45010;53.640;10.578;2023-01-26T12:54:11;101464.69;;;24.88;32.15
59240;BME280;45010;53.640;10.578;2023-01-26T12:57:20;101466.31;;;24.89;31.95
59240;BME280;45010;53.640;10.578;2023-01-26T13:00:25;101457.31;;;24.83;32.42
59240;BME280;45010;53.640;10.578;2023-01-26T13:03:31;101451.75;;;24.85;32.41
59240;BME280;45010;53.640;10.578;2023-01-26T13:06:32;101449.06;;;24.92;32.52
59240;BME280;45010;53.640;10.578;2023-01-26T13:09:33;101447.44;;;24.91;32.46
59240;BME280;45010;53.640;10.578;2023-01-26T13:16:30;101445.34;;;24.93;32.45
59240;BME280;45010;53.640;10.578;2023-01-26T13:19:51;101450.69;;;24.93;32.45
59240;BME280;45010;53.640;10.578;2023-01-26T13:22:52;101451.50;;;24.93;32.52
59240;BME280;45010;53.640;10.578;2023-01-26T13:35:35;101442.31;;;24.89;32.42
59240;BME280;45010;53.640;10.578;2023-01-26T13:38:40;101441.91;;;24.85;32.40
59240;BME280;45010;53.640;10.578;2023-01-26T13:41:46;101460.13;;;24.95;32.03
59240;BME280;45010;53.640;10.578;2023-01-26T13:44:54;101452.75;;;24.91;32.18
59240;BME280;45010;53.640;10.578;2023-01-26T13:47:57;101458.91;;;24.91;32.32
59240;BME280;45010;53.640;10.578;2023-01-26T13:51:00;101438.03;;;24.81;32.26
59240;BME280;45010;53.640;10.578;2023-01-26T13:54:06;101470.34;;;24.98;32.32
59240;BME280;45010;53.640;10.578;2023-01-26T13:57:12;101465.84;;;24.99;32.31
59240;BME280;45010;53.640;10.578;2023-01-26T14:00:19;101474.44;;;25.01;32.25
59240;BME280;45010;53.640;10.578;2023-01-26T14:03:20;101483.06;;;25.03;32.22
59240;BME280;45010;53.640;10.578;2023-01-26T14:06:21;101484.69;;;25.04;32.06
59240;BME280;45010;53.640;10.578;2023-01-26T14:09:22;101490.03;;;25.04;32.09
59240;BME280;45010;53.640;10.578;2023-01-26T14:12:32;101470.19;;;24.93;32.07
59240;BME280;45010;53.640;10.578;2023-01-26T14:15:33;101476.53;;;24.92;32.05
59240;BME280;45010;53.640;10.578;2023-01-26T14:18:34;101500.09;;;25.02;32.02
59240;BME280;45010;53.640;10.578;2023-01-26T14:24:49;101505.22;;;25.04;32.03
59240;BME280;45010;53.640;10.578;2023-01-26T14:27:50;101504.41;;;25.03;32.04
59240;BME280;45010;53.640;10.578;2023-01-26T14:31:04;101504.41;;;25.03;32.10
59240;BME280;45010;53.640;10.578;2023-01-26T14:34:09;101498.72;;;24.93;32.16
59240;BME280;45010;53.640;10.578;2023-01-26T14:37:14;101504.44;;;24.96;31.95
59240;BME280;45010;53.640;10.578;2023-01-26T14:40:20;101508.97;;;24.96;32.00
59240;BME280;45010;53.640;10.578;2023-01-26T14:43:22;101520.41;;;25.03;32.00
59240;BME280;45010;53.640;10.578;2023-01-26T14:50:55;101520.41;;;25.03;31.87
59240;BME280;45010;53.640;10.578;2023-01-26T14:53:26;101483.97;;;24.83;32.07
59240;BME280;45010;53.640;10.578;2023-01-26T14:56:32;101512.19;;;25.05;31.81
59240;BME280;45010;53.640;10.578;2023-01-26T14:59:37;101513.88;;;24.99;31.96
59240;BME280;45010;53.640;10.578;2023-01-26T15:02:43;101514.63;;;25.06;31.81
59240;BME280;45010;53.640;10.578;2023-01-26T15:05:46;101529.03;;;25.05;31.95
59240;BME280;45010;53.640;10.578;2023-01-26T15:11:58;101483.56;;;24.87;31.83
59240;BME280;45010;53.640;10.578;2023-01-26T15:15:19;101518.34;;;25.05;31.85
59240;BME280;45010;53.640;10.578;2023-01-26T15:18:19;101515.50;;;25.00;31.45
59240;BME280;45010;53.640;10.578;2023-01-26T15:21:20;101521.59;;;25.07;30.48
59240;BME280;45010;53.640;10.578;2023-01-26T15:24:21;101514.63;;;25.06;30.17
59240;BME280;45010;53.640;10.578;2023-01-26T15:27:22;101520.41;;;25.03;30.26
59240;BME280;45010;53.640;10.578;2023-01-26T15:33:50;101528.44;;;25.03;30.63
59240;BME280;45010;53.640;10.578;2023-01-26T15:36:50;101532.72;;;25.04;30.92
59240;BME280;45010;53.640;10.578;2023-01-26T15:39:50;101532.72;;;25.04;31.07
59240;BME280;45010;53.640;10.578;2023-01-26T15:43:13;101528.25;;;24.98;31.19
59240;BME280;45010;53.640;10.578;2023-01-26T15:46:13;101543.41;;;25.04;31.06
59240;BME280;45010;53.640;10.578;2023-01-26T15:49:14;101518.44;;;24.92;31.21
59240;BME280;45010;53.640;10.578;2023-01-26T15:52:24;101527.22;;;24.99;31.35
59240;BME280;45010;53.640;10.578;2023-01-26T15:55:30;101496.91;;;24.87;31.38
59240;BME280;45010;53.640;10.578;2023-01-26T15:58:31;101512.25;;;24.98;31.28
59240;BME280;45010;53.640;10.578;2023-01-26T16:01:33;101523.69;;;25.05;31.26
59240;BME280;45010;53.640;10.578;2023-01-26T16:04:34;101522.06;;;25.04;31.44
59240;BME280;45010;53.640;10.578;2023-01-26T16:07:34;101522.84;;;25.05;31.45
59240;BME280;45010;53.640;10.578;2023-01-26T16:10:36;101523.69;;;25.05;31.55
59240;BME280;45010;53.640;10.578;2023-01-26T16:13:36;101521.00;;;25.05;31.51
59240;BME280;45010;53.640;10.578;2023-01-26T16:16:39;101501.78;;;24.90;31.70
59240;BME280;45010;53.640;10.578;2023-01-26T16:19:41;101534.34;;;25.05;31.63
59240;BME280;45010;53.640;10.578;2023-01-26T16:22:41;101527.81;;;25.01;31.71
59240;BME280;45010;53.640;10.578;2023-01-26T16:25:42;101539.69;;;25.05;31.64
59240;BME280;45010;53.640;10.578;2023-01-26T16:28:42;101540.53;;;25.06;31.72
59240;BME280;45010;53.640;10.578;2023-01-26T16:31:43;101540.28;;;25.07;31.65
59240;BME280;45010;53.640;10.578;2023-01-26T16:34:43;101534.94;;;25.07;31.64
59240;BME280;45010;53.640;10.578;2023-01-26T16:37:44;101543.78;;;25.08;31.72
59240;BME280;45010;53.640;10.578;2023-01-26T16:40:46;101536.84;;;25.00;31.79
59240;BME280;45010;53.640;10.578;2023-01-26T16:43:47;101547.88;;;25.10;32.17
59240;BME280;45010;53.640;10.578;2023-01-26T16:46:47;101544.19;;;25.11;32.63
59240;BME280;45010;53.640;10.578;2023-01-26T16:49:47;101547.44;;;25.14;33.19
59240;BME280;45010;53.640;10.578;2023-01-26T16:52:48;101545.88;;;25.06;33.36
59240;BME280;45010;53.640;10.578;2023-01-26T16:55:48;101550.72;;;25.16;33.55
59240;BME280;45010;53.640;10.578;2023-01-26T16:58:49;101546.84;;;25.11;33.93
59240;BME280;45010;53.640;10.578;2023-01-26T17:01:49;101554.00;;;25.18;34.11